createdAt,value
2022-11-25T00:00:27.343Z,5.85
2022-11-25T00:02:56.008Z,5.57
2022-11-25T00:05:26.497Z,6.13
2022-11-25T00:07:56.518Z,6.63
2022-11-25T00:10:25.173Z,5.77
2022-11-25T00:12:53.936Z,6.05
2022-11-25T00:15:22.435Z,5.93
2022-11-25T00:17:51.032Z,6.05
2022-11-25T00:20:20.692Z,6.22
2022-11-25T00:22:49.411Z,6.05
2022-11-25T00:25:19.416Z,6.63
2022-11-25T00:27:48.012Z,6.50
2022-11-25T00:30:16.769Z,6.38
2022-11-25T00:32:45.603Z,6.05
2022-11-25T00:35:14.309Z,5.60
2022-11-25T00:37:42.896Z,6.00
2022-11-25T00:40:12.850Z,5.82
2022-11-25T00:43:00.245Z,5.72
2022-11-25T00:45:28.995Z,5.57
2022-11-25T00:47:57.495Z,5.45
2022-11-25T00:50:25.924Z,5.65
2022-11-25T00:52:54.576Z,4.93
2022-11-25T00:55:23.152Z,4.97
2022-11-25T00:57:53.176Z,5.28
2022-11-25T01:00:21.967Z,4.60
2022-11-25T01:02:50.670Z,5.07
2022-11-25T01:05:19.214Z,5.65
2022-11-25T01:07:47.887Z,5.10
2022-11-25T01:10:16.491Z,5.78
2022-11-25T01:12:48.978Z,5.22
2022-11-25T01:15:19.701Z,5.18
2022-11-25T01:17:49.117Z,5.38
2022-11-25T01:20:18.007Z,5.80
2022-11-25T01:22:46.531Z,5.07
2022-11-25T01:25:15.331Z,4.93
2022-11-25T01:27:45.668Z,5.72
2022-11-25T01:30:14.920Z,4.78
2022-11-25T01:32:45.003Z,4.60
2022-11-25T01:35:13.481Z,5.43
2022-11-25T01:37:41.978Z,5.25
2022-11-25T01:40:11.910Z,5.07
2022-11-25T01:42:44.827Z,5.68
2022-11-25T01:45:44.498Z,5.43
2022-11-25T01:48:20.279Z,5.32
2022-11-25T01:50:51.149Z,5.10
2022-11-25T01:53:21.906Z,4.90
2022-11-25T01:55:55.008Z,4.75
2022-11-25T01:58:29.843Z,4.53
2022-11-25T02:00:58.682Z,4.90
2022-11-25T02:03:35.073Z,5.00
2022-11-25T02:06:10.565Z,4.72
2022-11-25T02:08:40.023Z,4.78
2022-11-25T02:11:08.917Z,4.93
2022-11-25T02:13:38.419Z,5.30
2022-11-25T02:16:07.875Z,5.15
2022-11-25T02:18:38.083Z,4.38
2022-11-25T02:21:07.473Z,5.22
2022-11-25T02:23:45.123Z,4.85
2022-11-25T02:26:15.542Z,4.28
2022-11-25T02:28:44.911Z,4.85
2022-11-25T02:31:13.611Z,4.68
2022-11-25T02:33:42.397Z,4.07
2022-11-25T02:36:15.746Z,5.57
2022-11-25T02:38:47.122Z,5.53
2022-11-25T02:41:21.194Z,4.82
2022-11-25T02:43:56.420Z,4.55
2022-11-25T02:46:26.705Z,5.00
2022-11-25T02:49:12.470Z,4.47
2022-11-25T02:51:46.011Z,4.68
2022-11-25T02:54:18.079Z,5.40
2022-11-25T02:56:48.126Z,4.90
2022-11-25T02:59:16.756Z,4.57
2022-11-25T03:01:45.446Z,4.93
2022-11-25T03:04:14.163Z,5.28
2022-11-25T03:06:42.805Z,5.10
2022-11-25T03:09:11.353Z,6.20
2022-11-25T03:11:57.639Z,5.22
2022-11-25T03:14:28.119Z,5.00
2022-11-25T03:16:56.868Z,4.88
2022-11-25T03:19:27.523Z,5.35
2022-11-25T03:21:56.251Z,4.88
2022-11-25T03:24:24.834Z,5.20
2022-11-25T03:26:53.583Z,5.53
2022-11-25T03:29:22.200Z,5.50
2022-11-25T03:31:52.786Z,5.30
2022-11-25T03:34:22.402Z,5.22
2022-11-25T03:36:51.370Z,5.22
2022-11-25T03:39:20.513Z,4.60
2022-11-25T03:41:49.061Z,4.60
2022-11-25T03:44:18.306Z,5.07
2022-11-25T03:46:46.878Z,5.90
2022-11-25T03:49:16.938Z,5.50
2022-11-25T03:51:45.960Z,5.18
2022-11-25T03:54:16.598Z,5.00
2022-11-25T03:57:05.515Z,4.82
2022-11-25T03:59:35.742Z,5.97
2022-11-25T04:02:05.071Z,6.05
2022-11-25T04:04:36.099Z,5.35
2022-11-25T04:07:05.186Z,6.20
2022-11-25T04:09:34.867Z,6.75
2022-11-25T04:12:28.052Z,6.03
2022-11-25T04:15:03.847Z,5.80
2022-11-25T04:17:32.952Z,5.38
2022-11-25T04:20:03.809Z,5.70
2022-11-25T04:22:32.729Z,5.32
2022-11-25T04:25:03.445Z,6.20
2022-11-25T04:27:32.521Z,5.85
2022-11-25T04:30:01.344Z,6.30
2022-11-25T04:32:31.520Z,6.07
2022-11-25T04:35:00.781Z,5.80
2022-11-25T04:37:31.140Z,5.93
2022-11-25T04:40:01.082Z,5.97
2022-11-25T04:42:34.875Z,6.05
2022-11-25T04:45:24.846Z,5.50
2022-11-25T04:47:56.210Z,6.80
2022-11-25T04:50:47.517Z,8.00
2022-11-25T04:53:19.712Z,6.55
2022-11-25T04:55:49.070Z,6.95
2022-11-25T04:58:38.243Z,7.30
2022-11-25T05:01:07.218Z,6.30
2022-11-25T05:03:36.401Z,6.13
2022-11-25T05:06:08.582Z,6.32
2022-11-25T05:08:40.825Z,6.72
2022-11-25T05:11:12.430Z,6.68
2022-11-25T05:13:41.326Z,6.55
2022-11-25T05:16:10.321Z,6.07
2022-11-25T05:18:42.122Z,6.55
2022-11-25T05:21:11.150Z,6.95
2022-11-25T05:23:44.681Z,6.93
2022-11-25T05:26:14.170Z,6.95
2022-11-25T05:28:52.389Z,6.03
2022-11-25T05:31:21.437Z,6.63
2022-11-25T05:33:51.846Z,6.35
2022-11-25T05:36:26.134Z,6.57
2022-11-25T05:38:57.842Z,6.45
2022-11-25T05:41:37.979Z,5.93
2022-11-25T05:44:07.320Z,6.75
2022-11-25T05:46:37.950Z,6.10
2022-11-25T05:49:09.639Z,7.18
2022-11-25T05:51:39.501Z,6.07
2022-11-25T05:54:12.488Z,7.03
2022-11-25T05:56:48.600Z,7.28
2022-11-25T05:59:52.613Z,6.90
2022-11-25T06:02:40.947Z,6.70
2022-11-25T06:05:11.400Z,6.70
2022-11-25T06:07:40.856Z,7.30
2022-11-25T06:10:12.045Z,7.05
2022-11-25T06:12:43.063Z,7.47
2022-11-25T06:15:13.381Z,6.65
2022-11-25T06:17:44.655Z,7.10
2022-11-25T06:20:20.089Z,6.32
2022-11-25T06:22:48.931Z,7.20
2022-11-25T06:25:24.430Z,6.78
2022-11-25T06:28:12.362Z,6.95
2022-11-25T06:30:46.678Z,5.80
2022-11-25T06:33:22.227Z,6.70
2022-11-25T06:35:51.890Z,6.85
2022-11-25T06:38:20.739Z,6.97
2022-11-25T06:40:51.799Z,7.18
2022-11-25T06:43:21.977Z,7.13
2022-11-25T06:45:50.947Z,7.75
2022-11-25T06:48:19.993Z,7.22
2022-11-25T06:51:00.059Z,6.72
2022-11-25T06:53:32.665Z,7.20
2022-11-25T06:56:13.492Z,7.88
2022-11-25T06:58:46.653Z,6.97
2022-11-25T07:01:19.923Z,7.90
2022-11-25T07:03:55.363Z,6.78
2022-11-25T07:06:25.068Z,7.30
2022-11-25T07:08:56.244Z,7.47
2022-11-25T07:11:30.722Z,7.68
2022-11-25T07:14:03.843Z,7.32
2022-11-25T07:16:33.463Z,7.28
2022-11-25T07:19:03.653Z,7.05
2022-11-25T07:21:35.241Z,7.20
2022-11-25T07:24:06.276Z,7.15
2022-11-25T07:32:04.426Z,6.85
2022-11-25T07:34:36.021Z,7.45
2022-11-25T07:37:04.827Z,7.90
2022-11-25T07:39:34.828Z,7.35
2022-11-25T07:42:05.421Z,6.80
2022-11-25T07:44:34.198Z,7.28
2022-11-25T07:47:21.790Z,7.03
2022-11-25T07:49:54.046Z,6.65
2022-11-25T07:52:23.031Z,7.05
2022-11-25T07:54:51.862Z,7.03
2022-11-25T07:57:22.311Z,7.00
2022-11-25T07:59:50.984Z,7.75
2022-11-25T08:02:19.869Z,6.25
2022-11-25T08:04:48.845Z,6.63
2022-11-25T08:07:17.792Z,6.60
2022-11-25T08:09:46.561Z,6.95
2022-11-25T08:12:15.478Z,6.53
2022-11-25T08:14:45.782Z,5.88
2022-11-25T08:17:14.625Z,6.53
2022-11-25T08:19:43.529Z,7.20
2022-11-25T08:22:12.387Z,6.78
2022-11-25T08:24:41.247Z,7.07
2022-11-25T08:27:10.179Z,6.97
2022-11-25T08:29:39.444Z,7.78
2022-11-25T08:32:12.028Z,6.75
2022-11-25T08:34:41.465Z,6.22
2022-11-25T08:37:11.978Z,6.05
2022-11-25T08:39:56.691Z,5.32
2022-11-25T08:42:27.282Z,5.72
2022-11-25T08:44:57.361Z,6.05
2022-11-25T08:47:30.545Z,6.63
2022-11-25T08:50:02.707Z,6.00
2022-11-25T08:52:31.641Z,5.53
2022-11-25T08:55:00.645Z,5.60
2022-11-25T08:57:32.292Z,4.22
2022-11-25T09:00:01.109Z,4.72
2022-11-25T09:02:31.555Z,4.38
2022-11-25T09:05:00.381Z,5.22
2022-11-25T09:07:31.773Z,4.03
2022-11-25T09:10:00.843Z,4.65
2022-11-25T09:12:29.682Z,4.05
2022-11-25T09:14:59.527Z,4.53
2022-11-25T09:17:28.865Z,4.32
2022-11-25T09:19:59.089Z,4.30
2022-11-25T09:22:28.004Z,4.38
2022-11-25T09:24:56.882Z,4.25
2022-11-25T09:27:25.709Z,4.85
2022-11-25T09:29:54.600Z,4.38
2022-11-25T09:32:23.766Z,5.03
2022-11-25T09:34:52.748Z,4.68
2022-11-25T09:37:23.124Z,4.10
2022-11-25T09:39:56.252Z,4.20
2022-11-25T09:42:52.999Z,4.13
2022-11-25T09:45:44.307Z,3.63
2022-11-25T09:48:34.924Z,3.78
2022-11-25T09:51:19.366Z,3.33
2022-11-25T09:53:55.528Z,4.25
2022-11-25T09:56:37.662Z,3.88
2022-11-25T09:59:12.938Z,4.07
2022-11-25T10:01:49.254Z,4.40
2022-11-25T10:04:26.471Z,3.28
2022-11-25T10:07:01.365Z,4.00
2022-11-25T10:09:34.077Z,3.95
2022-11-25T10:12:07.500Z,4.00
2022-11-25T10:14:46.595Z,3.95
2022-11-25T10:17:24.078Z,4.47
2022-11-25T10:20:01.407Z,4.32
2022-11-25T10:22:34.667Z,3.30
2022-11-25T10:25:15.615Z,3.88
2022-11-25T10:27:50.612Z,3.90
2022-11-25T10:30:25.287Z,4.00
2022-11-25T10:33:02.132Z,3.55
2022-11-25T10:35:37.349Z,3.60
2022-11-25T10:38:18.557Z,3.00
2022-11-25T10:40:52.381Z,3.67
2022-11-25T10:43:21.180Z,3.72
2022-11-25T10:46:00.143Z,9.73
2022-11-25T10:48:52.363Z,9.65
2022-11-25T10:51:34.421Z,7.68
2022-11-25T10:54:25.497Z,13.60
2022-11-25T10:56:59.403Z,10.02
2022-11-25T10:59:30.803Z,18.02
2022-11-25T11:02:23.160Z,5.88
2022-11-25T11:05:01.581Z,6.75
2022-11-25T11:07:34.682Z,84.78
2022-11-25T11:10:24.109Z,45.88
2022-11-25T11:12:58.437Z,12.70
2022-11-25T11:15:31.224Z,4.43
2022-11-25T11:18:23.259Z,8.32
2022-11-25T11:20:54.569Z,8.90
2022-11-25T11:23:25.097Z,9.82
2022-11-25T11:25:59.597Z,5.93
2022-11-25T11:28:39.328Z,6.43
2022-11-25T11:31:18.917Z,4.88
2022-11-25T11:33:59.663Z,10.50
2022-11-25T11:36:40.128Z,6.38
2022-11-25T11:39:32.950Z,7.20
2022-11-25T11:42:09.864Z,8.93
2022-11-25T11:44:54.950Z,6.03
2022-11-25T11:47:33.375Z,9.52
2022-11-25T11:50:25.490Z,11.18
2022-11-25T11:53:03.615Z,8.55
2022-11-25T11:56:00.467Z,10.20
2022-11-25T11:58:59.502Z,9.32
2022-11-25T12:01:45.084Z,5.70
2022-11-25T12:04:24.934Z,6.20
2022-11-25T12:07:06.750Z,143.35
2022-11-25T12:09:44.587Z,104.50
2022-11-25T12:12:20.236Z,43.72
2022-11-25T12:14:52.631Z,29.02
2022-11-25T12:17:29.076Z,13.75
2022-11-25T12:20:02.207Z,8.48
2022-11-25T12:22:35.851Z,10.82
2022-11-25T12:25:12.089Z,5.75
2022-11-25T12:27:45.612Z,11.18
2022-11-25T12:30:20.566Z,8.35
2022-11-25T12:32:58.631Z,6.03
2022-11-25T12:35:39.305Z,3.38
2022-11-25T12:38:20.311Z,3.28
2022-11-25T12:40:54.808Z,3.30
2022-11-25T12:43:34.112Z,6.05
2022-11-25T12:46:13.250Z,3.25
2022-11-25T12:48:46.091Z,3.20
2022-11-25T12:51:41.769Z,1.90
2022-11-25T12:54:29.750Z,2.28
2022-11-25T12:57:33.102Z,2.05
2022-11-25T13:00:40.604Z,3.67
2022-11-25T13:03:36.811Z,3.05
2022-11-25T13:06:54.092Z,3.67
2022-11-25T13:09:57.743Z,3.40
2022-11-25T13:12:42.860Z,2.70
2022-11-25T13:15:27.663Z,2.58
2022-11-25T13:18:01.149Z,2.63
2022-11-25T13:20:43.630Z,2.33
2022-11-25T13:23:33.071Z,1.63
2022-11-25T13:26:39.183Z,1.70
2022-11-25T13:30:04.821Z,1.25
2022-11-25T13:32:36.514Z,0.93
2022-11-25T13:35:41.723Z,1.13
2022-11-25T13:38:38.189Z,1.42
2022-11-25T13:41:27.394Z,0.98
2022-11-25T13:44:02.554Z,1.08
2022-11-25T13:46:40.190Z,1.75
2022-11-25T13:49:23.961Z,1.23
2022-11-25T13:51:54.892Z,1.33
2022-11-25T13:54:33.274Z,1.95
2022-11-25T13:57:30.313Z,1.70
2022-11-25T14:00:01.425Z,1.25
2022-11-25T14:02:50.095Z,1.63
2022-11-25T14:05:59.181Z,1.10
2022-11-25T14:08:44.041Z,1.70
2022-11-25T14:11:48.315Z,1.67
2022-11-25T14:14:50.570Z,1.60
2022-11-25T14:18:00.695Z,1.23
2022-11-25T14:20:42.141Z,1.52
2022-11-25T14:23:50.331Z,1.48
2022-11-25T14:26:49.230Z,1.40
2022-11-25T14:29:25.442Z,1.77
2022-11-25T14:31:59.283Z,1.95
2022-11-25T14:34:33.631Z,1.75
2022-11-25T14:37:11.795Z,2.00
2022-11-25T14:39:49.294Z,1.83
2022-11-25T14:42:25.306Z,2.28
2022-11-25T14:44:59.211Z,2.22
2022-11-25T14:47:33.240Z,2.08
2022-11-25T14:50:32.914Z,1.85
2022-11-25T14:52:55.341Z,1.73
2022-11-25T14:55:32.861Z,2.40
2022-11-25T14:58:02.021Z,2.40
2022-11-25T15:00:32.565Z,2.33
2022-11-25T15:03:03.283Z,1.77
2022-11-25T15:05:35.301Z,2.10
2022-11-25T15:08:11.036Z,2.08
2022-11-25T15:10:45.634Z,1.83
2022-11-25T15:13:25.274Z,1.75
2022-11-25T15:15:57.007Z,1.83
2022-11-25T15:18:26.768Z,1.60
2022-11-25T15:20:59.849Z,1.88
2022-11-25T15:23:34.863Z,1.40
2022-11-25T15:26:04.751Z,1.00
2022-11-25T15:28:38.093Z,1.27
2022-11-25T15:31:13.958Z,1.55
2022-11-25T15:33:43.467Z,1.48
2022-11-25T15:36:12.043Z,1.50
2022-11-25T15:38:44.102Z,0.98
2022-11-25T15:41:33.744Z,1.20
2022-11-25T15:44:07.032Z,1.52
2022-11-25T15:46:37.590Z,1.35
2022-11-25T15:49:10.174Z,1.50
2022-11-25T15:51:43.978Z,1.52
2022-11-25T15:54:21.085Z,1.52
2022-11-25T15:56:51.624Z,1.05
2022-11-25T15:59:45.869Z,1.30
2022-11-25T16:02:34.670Z,1.40
2022-11-25T16:05:35.978Z,1.45
2022-11-25T16:08:25.625Z,0.90
2022-11-25T16:10:57.119Z,1.33
2022-11-25T16:13:30.878Z,1.40
2022-11-25T16:16:04.052Z,1.92
2022-11-25T16:18:40.965Z,1.63
2022-11-25T16:21:12.950Z,1.48
2022-11-25T16:23:45.456Z,1.23
2022-11-25T16:26:18.336Z,1.90
2022-11-25T16:28:54.044Z,1.25
2022-11-25T16:31:25.567Z,1.70
2022-11-25T16:33:58.096Z,2.05
2022-11-25T16:36:26.712Z,2.00
2022-11-25T16:38:55.650Z,2.60
2022-11-25T16:41:27.035Z,1.98
2022-11-25T16:43:57.171Z,1.67
2022-11-25T16:46:28.509Z,2.20
2022-11-25T16:48:58.490Z,2.15
2022-11-25T16:51:27.471Z,1.70
2022-11-25T16:53:56.037Z,1.75
2022-11-25T16:56:28.216Z,2.50
2022-11-25T16:58:57.417Z,2.00
2022-11-25T17:01:29.158Z,2.50
2022-11-25T17:03:59.235Z,2.00
2022-11-25T17:06:30.321Z,2.30
2022-11-25T17:11:31.141Z,2.05
2022-11-25T17:14:02.640Z,2.22
2022-11-25T17:16:32.407Z,2.25
2022-11-25T17:19:02.712Z,1.65
2022-11-25T17:21:31.406Z,1.63
2022-11-25T17:24:02.950Z,2.47
2022-11-25T17:26:38.089Z,1.67
2022-11-25T17:29:10.287Z,1.55
2022-11-25T17:31:40.078Z,2.15
2022-11-25T17:34:15.014Z,2.00
2022-11-25T17:36:44.203Z,2.47
2022-11-25T17:39:13.942Z,2.33
2022-11-25T17:41:46.598Z,2.72
2022-11-25T17:44:23.983Z,1.90
2022-11-25T17:46:53.029Z,1.63
2022-11-25T17:49:24.131Z,2.20
2022-11-25T17:54:21.239Z,1.77
2022-11-25T17:56:52.500Z,2.10
2022-11-25T17:59:28.079Z,2.03
2022-11-25T18:01:59.202Z,2.35
2022-11-25T18:04:34.848Z,2.30
2022-11-25T18:07:03.686Z,1.70
2022-11-25T18:09:32.165Z,2.22
2022-11-25T18:12:04.579Z,1.45
2022-11-25T18:14:36.026Z,1.45
2022-11-25T18:17:08.128Z,1.98
2022-11-25T18:19:38.266Z,1.92
2022-11-25T18:22:12.891Z,1.73
2022-11-25T18:24:41.830Z,1.45
2022-11-25T18:27:15.740Z,1.45
2022-11-25T18:29:44.378Z,1.40
2022-11-25T18:32:12.874Z,1.88
2022-11-25T18:34:43.114Z,2.95
2022-11-25T18:37:12.719Z,2.03
2022-11-25T18:39:42.185Z,1.67
2022-11-25T18:42:22.336Z,1.58
2022-11-25T18:44:50.921Z,1.80
2022-11-25T18:47:19.435Z,1.20
2022-11-25T18:49:55.114Z,1.73
2022-11-25T18:52:24.392Z,1.95
2022-11-25T18:54:52.901Z,1.75
2022-11-25T18:57:21.684Z,1.55
2022-11-25T19:00:16.885Z,1.77
2022-11-25T19:02:39.717Z,1.65
2022-11-25T19:05:18.081Z,1.48
2022-11-25T19:07:47.911Z,1.70
2022-11-25T19:10:17.348Z,1.25
2022-11-25T19:12:49.544Z,1.48
2022-11-25T19:15:21.681Z,1.65
2022-11-25T19:17:53.732Z,1.90
2022-11-25T19:20:25.264Z,1.75
2022-11-25T19:22:59.191Z,1.90
2022-11-25T19:25:29.745Z,2.35
2022-11-25T19:27:59.940Z,1.90
2022-11-25T19:30:32.931Z,1.27
2022-11-25T19:33:03.186Z,1.25
2022-11-25T19:35:36.104Z,1.40
2022-11-25T19:38:12.818Z,1.63
2022-11-25T19:40:42.879Z,1.35
2022-11-25T19:43:11.317Z,1.63
2022-11-25T19:45:40.105Z,1.33
2022-11-25T19:48:14.199Z,1.60
2022-11-25T19:50:46.192Z,1.60
2022-11-25T19:53:18.590Z,1.52
2022-11-25T19:55:47.532Z,1.35
2022-11-25T19:58:16.405Z,1.52
2022-11-25T20:00:47.452Z,1.40
2022-11-25T20:05:51.602Z,1.27
2022-11-25T20:08:24.078Z,1.48
2022-11-25T20:10:53.527Z,1.70
2022-11-25T20:13:26.308Z,1.70
2022-11-25T20:15:56.642Z,1.27
2022-11-25T20:18:27.905Z,1.20
2022-11-25T20:21:04.790Z,1.48
2022-11-25T20:23:43.728Z,1.15
2022-11-25T20:26:18.402Z,1.33
2022-11-25T20:28:48.042Z,1.83
2022-11-25T20:31:17.004Z,1.45
2022-11-25T20:33:49.019Z,1.60
2022-11-25T20:36:23.140Z,1.40
2022-11-25T20:38:54.986Z,1.85
2022-11-25T20:41:27.689Z,1.20
2022-11-25T20:43:57.886Z,1.27
2022-11-25T20:46:30.313Z,1.13
2022-11-25T20:49:01.851Z,1.40
2022-11-25T20:51:31.999Z,1.75
2022-11-25T20:54:02.321Z,1.27
2022-11-25T20:56:31.253Z,1.27
2022-11-25T20:58:59.757Z,1.45
2022-11-25T21:01:28.319Z,1.77
2022-11-25T21:03:56.884Z,1.55
2022-11-25T21:06:28.887Z,1.50
2022-11-25T21:09:01.239Z,1.50
2022-11-25T21:11:33.203Z,1.55
2022-11-25T21:14:01.882Z,1.50
2022-11-25T21:16:30.420Z,1.58
2022-11-25T21:18:59.121Z,1.38
2022-11-25T21:21:33.437Z,1.10
2022-11-25T21:24:08.729Z,1.63
2022-11-25T21:26:37.293Z,1.27
2022-11-25T21:29:05.732Z,1.23
2022-11-25T21:31:34.325Z,0.95
2022-11-25T21:34:04.549Z,1.40
2022-11-25T21:36:33.228Z,1.30
2022-11-25T21:39:06.413Z,1.48
2022-11-25T21:41:35.576Z,1.05
2022-11-25T21:44:07.591Z,1.55
2022-11-25T21:46:36.838Z,1.55
2022-11-25T21:49:12.568Z,1.27
2022-11-25T21:51:41.103Z,1.13
2022-11-25T21:54:11.785Z,1.40
2022-11-25T21:56:40.753Z,1.60
2022-11-25T21:59:15.386Z,1.88
2022-11-25T22:01:44.032Z,1.90
2022-11-25T22:04:15.926Z,2.08
2022-11-25T22:06:45.023Z,1.83
2022-11-25T22:09:15.675Z,1.90
2022-11-25T22:11:48.405Z,1.83
2022-11-25T22:14:25.573Z,1.65
2022-11-25T22:16:54.219Z,2.20
2022-11-25T22:19:24.744Z,1.73
2022-11-25T22:21:53.291Z,2.33
2022-11-25T22:24:23.683Z,1.80
2022-11-25T22:26:57.756Z,2.42
2022-11-25T22:29:36.637Z,2.78
2022-11-25T22:32:11.172Z,2.63
2022-11-25T22:34:41.343Z,2.05
2022-11-25T22:37:18.122Z,2.45
2022-11-25T22:39:48.405Z,2.40
2022-11-25T22:42:21.936Z,2.57
2022-11-25T22:44:51.602Z,2.58
2022-11-25T22:47:27.917Z,2.35
2022-11-25T22:49:57.187Z,2.17
2022-11-25T22:52:29.131Z,2.90
2022-11-25T22:55:00.959Z,3.33
2022-11-25T22:57:29.632Z,3.35
2022-11-25T22:59:58.223Z,3.28
2022-11-25T23:02:33.877Z,3.00
2022-11-25T23:05:02.740Z,2.72
2022-11-25T23:07:31.262Z,3.20
2022-11-25T23:10:01.309Z,2.70
2022-11-25T23:12:29.921Z,2.55
2022-11-25T23:14:58.527Z,3.22
2022-11-25T23:17:27.444Z,2.33
2022-11-25T23:19:56.004Z,2.17
2022-11-25T23:22:24.487Z,3.22
2022-11-25T23:24:53.092Z,3.05
2022-11-25T23:27:38.309Z,3.22
2022-11-25T23:30:08.398Z,3.35
2022-11-25T23:32:37.106Z,3.00
2022-11-25T23:35:06.313Z,3.05
2022-11-25T23:37:34.902Z,3.22
2022-11-25T23:40:04.015Z,3.70
2022-11-25T23:42:34.434Z,3.20
2022-11-25T23:45:02.991Z,2.85
2022-11-25T23:47:31.528Z,3.78
2022-11-25T23:50:01.894Z,3.53
2022-11-25T23:52:30.500Z,3.08
2022-11-25T23:54:59.510Z,3.42
2022-11-25T23:57:32.766Z,3.38
